Cancún International Airport
MMUN : now visible

Airfield :











YOU CAN JOIN US ON...

 
LOGIN :

Register | Disclaimer

   EN    FR    IT 

 









Legend :    VFR   Marginal VFR   IFR   Intensive IFR   Very Intensive IFR
Visi :
Ceiling :
>= 8 km
>= 3000ft
5 to 8 km
1000 to 3000 ft
1500m to 5 km
500 to 1000 ft
800 to 1500m
200 to 500 ft
< 800m
< 200 ft
Symbols :   Thunderstorms  Fog  Heavy snow  Heavy precipitations  Wind > 20 kt






- Airport Elevation : 20 ft
- IATA code : CUN


MMUN - Cancún International

CURRENT METAR :
  • 281752Z 12014KT 7SM SCT015 BKN250 31/25 A2997 RMK SLP151 57010 913 8/108 MDT CU

EXPIRED METARs :
  • 281644Z 12012KT 7SM SCT015 BKN250 31/24 A2998 RMK 8/108
  • 281544Z 13013KT 7SM SCT015 BKN250 31/25 A2999 RMK 8/108 MDT CU

TAF TAF MMUN
Valid from the 28 at 18:00 until the 30 at 00:00 UTC


281715Z 2818/2924 12015KT P6SM SCT015 BKN250 TX32/2818Z TN28/2910Z
TEMPO 2820/2824 BKN015
FM290300 12010KT P6SM SCT015
FM291500 12015KT P6SM BKN015
PROB40 2916/2920 5SM -RA
MMFR FIR / North America



MET'MAP, your aeronautical weather chart ! - Copyright ORBIFLY December 2007 - Disclaimer

ORBIFLY MET'MAP TEAM :

Programming & Development : Alexandra Zaïnal
Concept & original design : Baudouin d'Aumeries
Assistance for programming : Marc-Olivier Méhu
Technical & hardware support : Manuel Goepfert

Contact : metmap@orbifly.com




SOURCES & CREDITS :

   NOAA       Earth
Advisory